Time;durP1;ratioP1;P1;durP2;ratioP2;P2;SDS_P1;SDS_P2;PMS_P1;PMS_P2;Temp;Humidity;BMP_temperature;BMP_pressure;BME280_temperature;BME280_humidity;BME280_pressure;Samples;Min_cycle;Max_cycle;Signal;HPM_P1;HPM_P2
2021/07/23 00:00:28;;;;;;;2.40;2.17;;;14.60;99.90;;;;;;2019655;29;20210;-76
2021/07/23 00:01:29;;;;;;;4.03;2.80;;;14.60;99.90;;;;;;2026007;29;20260;-75
2021/07/23 00:02:29;;;;;;;2.67;2.43;;;14.60;99.90;;;;;;2033737;29;20188;-74
2021/07/23 00:03:30;;;;;;;2.47;2.27;;;14.60;99.90;;;;;;2033757;29;20656;-74
2021/07/23 00:04:32;;;;;;;2.10;1.53;;;14.60;99.90;;;;;;2026453;29;20178;-75
2021/07/23 00:05:32;;;;;;;3.10;2.80;;;14.60;99.90;;;;;;2033589;29;20558;-75
2021/07/23 00:06:33;;;;;;;2.67;2.47;;;14.60;99.90;;;;;;2029705;29;20196;-72
2021/07/23 00:07:34;;;;;;;1.77;1.67;;;14.50;99.90;;;;;;2018471;29;20588;-72
2021/07/23 00:08:34;;;;;;;4.43;2.90;;;14.50;99.90;;;;;;2018141;29;20673;-72
2021/07/23 00:09:35;;;;;;;6.53;2.17;;;14.50;99.90;;;;;;2017660;29;20190;-72
2021/07/23 00:10:36;;;;;;;2.03;1.93;;;14.50;99.90;;;;;;2018010;29;20235;-72
2021/07/23 00:11:37;;;;;;;2.43;1.97;;;14.50;99.90;;;;;;2025522;29;20316;-73
2021/07/23 00:12:37;;;;;;;2.60;2.40;;;14.50;99.90;;;;;;2018077;29;20214;-72
2021/07/23 00:13:38;;;;;;;2.07;1.77;;;14.40;99.90;;;;;;2017897;29;20182;-72
2021/07/23 00:14:39;;;;;;;3.80;2.67;;;14.40;99.90;;;;;;2018780;29;20274;-72
2021/07/23 00:15:40;;;;;;;4.75;2.53;;;14.40;99.90;;;;;;2018759;29;20211;-72
2021/07/23 00:16:41;;;;;;;2.37;2.00;;;14.40;99.90;;;;;;2018017;29;20178;-73
2021/07/23 00:17:42;;;;;;;2.17;2.00;;;14.40;99.90;;;;;;2017890;29;20591;-73
2021/07/23 00:18:42;;;;;;;2.73;2.27;;;14.40;99.90;;;;;;2018113;29;20179;-73
2021/07/23 00:19:43;;;;;;;2.20;2.00;;;14.40;99.90;;;;;;2017967;29;20193;-73
2021/07/23 00:20:44;;;;;;;2.73;1.73;;;14.40;99.90;;;;;;2017919;29;20815;-73
2021/07/23 00:21:45;;;;;;;3.43;1.90;;;14.40;99.90;;;;;;2018215;29;20295;-73
2021/07/23 00:22:45;;;;;;;2.93;2.17;;;14.40;99.90;;;;;;2026695;29;20194;-72
2021/07/23 00:23:46;;;;;;;9.40;2.97;;;14.40;99.90;;;;;;2025989;29;20178;-73
2021/07/23 00:24:47;;;;;;;2.27;2.03;;;14.40;99.90;;;;;;2025875;29;20555;-73
2021/07/23 00:25:47;;;;;;;4.30;2.03;;;14.40;99.90;;;;;;2018333;29;20193;-73
2021/07/23 00:26:54;;;;;;;1.83;1.73;;;14.40;99.90;;;;;;2010461;29;20749;-73
2021/07/23 00:27:55;;;;;;;3.42;2.25;;;14.40;99.90;;;;;;2018135;29;20265;-72
2021/07/23 00:28:56;;;;;;;2.77;2.50;;;14.40;99.90;;;;;;2018747;29;20187;-73
2021/07/23 00:29:56;;;;;;;3.13;2.37;;;14.40;99.90;;;;;;2018587;29;20229;-73
2021/07/23 00:30:57;;;;;;;2.87;2.67;;;14.40;99.90;;;;;;2018780;29;20191;-73
2021/07/23 00:31:58;;;;;;;2.97;2.77;;;14.30;99.90;;;;;;2018735;29;20182;-72
2021/07/23 00:33:00;;;;;;;2.43;2.23;;;14.30;99.90;;;;;;2025941;29;20660;-72
2021/07/23 00:34:01;;;;;;;4.78;2.35;;;14.30;99.90;;;;;;2018259;29;20657;-72
2021/07/23 00:35:03;;;;;;;2.60;2.40;;;14.30;99.90;;;;;;2018113;29;20182;-73
2021/07/23 00:36:04;;;;;;;2.38;2.17;;;14.30;99.90;;;;;;2025791;29;20732;-72
2021/07/23 00:37:05;;;;;;;2.63;2.42;;;14.30;99.90;;;;;;2018742;29;20201;-73
2021/07/23 00:38:06;;;;;;;2.07;1.47;;;14.30;99.90;;;;;;2018059;29;20614;-72
2021/07/23 00:39:06;;;;;;;1.53;1.43;;;14.30;99.90;;;;;;2017713;29;20454;-73
2021/07/23 00:40:07;;;;;;;3.67;3.37;;;14.30;99.90;;;;;;2018540;29;20215;-73
2021/07/23 00:41:08;;;;;;;2.40;2.20;;;14.30;99.90;;;;;;2025566;29;20251;-73
2021/07/23 00:42:09;;;;;;;3.90;1.73;;;14.20;99.90;;;;;;2017792;29;20203;-72
2021/07/23 00:43:09;;;;;;;2.00;1.87;;;14.20;99.90;;;;;;2016864;29;20183;-73
2021/07/23 00:44:10;;;;;;;4.13;3.23;;;14.30;99.90;;;;;;2018489;29;20668;-72
2021/07/23 00:45:12;;;;;;;1.80;1.70;;;14.20;99.90;;;;;;2018578;29;20253;-73
2021/07/23 00:46:12;;;;;;;3.00;2.67;;;14.20;99.90;;;;;;2025831;29;20853;-73
2021/07/23 00:47:20;;;;;;;2.53;2.33;;;14.20;99.90;;;;;;2025611;29;20241;-73
2021/07/23 00:48:22;;;;;;;3.45;2.58;;;14.20;99.90;;;;;;2018820;29;20178;-73
2021/07/23 00:49:23;;;;;;;2.22;1.98;;;14.10;99.90;;;;;;2025672;29;20181;-73
2021/07/23 00:50:24;;;;;;;2.28;2.08;;;14.10;99.90;;;;;;2025633;29;20197;-73
2021/07/23 00:51:26;;;;;;;3.77;2.70;;;14.10;99.90;;;;;;2017818;29;20673;-73
2021/07/23 00:52:27;;;;;;;2.00;1.90;;;14.10;99.90;;;;;;2010376;29;20199;-73
2021/07/23 00:53:28;;;;;;;2.05;1.88;;;14.10;99.90;;;;;;2010240;29;20183;-73
2021/07/23 00:54:29;;;;;;;2.10;2.00;;;14.10;99.90;;;;;;2017937;29;20221;-73
2021/07/23 00:55:30;;;;;;;3.15;2.63;;;14.10;99.90;;;;;;2026597;29;20192;-72
2021/07/23 00:56:31;;;;;;;2.87;2.50;;;14.10;99.90;;;;;;2017976;29;20665;-73
2021/07/23 00:57:34;;;;;;;2.85;2.65;;;14.10;99.90;;;;;;2009974;29;20187;-73
2021/07/23 00:58:36;;;;;;;2.20;2.03;;;14.10;99.90;;;;;;2018065;29;20215;-73
2021/07/23 00:59:36;;;;;;;1.95;1.80;;;14.10;99.90;;;;;;2017728;29;20226;-72
2021/07/23 01:00:39;;;;;;;7.60;2.40;;;14.10;99.90;;;;;;2017882;29;20197;-73
2021/07/23 01:01:41;;;;;;;3.00;2.55;;;14.10;99.90;;;;;;2025505;29;20221;-72
2021/07/23 01:02:42;;;;;;;3.55;2.88;;;14.00;99.90;;;;;;2018159;29;20265;-73
2021/07/23 01:03:43;;;;;;;3.50;2.43;;;14.00;99.90;;;;;;2017965;29;20234;-73
2021/07/23 01:04:45;;;;;;;6.95;2.42;;;14.00;99.90;;;;;;2025327;29;20607;-73
2021/07/23 01:05:50;;;;;;;4.00;2.85;;;14.00;99.90;;;;;;2025226;29;20766;-73
2021/07/23 01:06:50;;;;;;;5.03;2.10;;;14.00;99.90;;;;;;2024870;29;20186;-73
2021/07/23 01:07:52;;;;;;;2.50;1.83;;;14.00;99.90;;;;;;2018325;29;20193;-73
2021/07/23 01:08:53;;;;;;;4.50;1.52;;;14.00;99.90;;;;;;2025415;29;20456;-73
2021/07/23 01:09:54;;;;;;;2.97;2.58;;;14.00;99.90;;;;;;2017584;29;20192;-73
2021/07/23 01:10:55;;;;;;;4.00;2.53;;;14.00;99.90;;;;;;2017674;29;20207;-73
2021/07/23 01:11:56;;;;;;;4.97;2.27;;;14.00;99.90;;;;;;2017558;29;20199;-73
2021/07/23 01:12:59;;;;;;;2.10;1.37;;;14.00;99.90;;;;;;2017686;29;20472;-73
2021/07/23 01:14:01;;;;;;;4.65;1.73;;;14.00;99.90;;;;;;2025409;29;20233;-73
2021/07/23 01:15:02;;;;;;;2.00;1.90;;;13.90;99.90;;;;;;2025364;29;20254;-72
2021/07/23 01:16:03;;;;;;;2.88;2.13;;;13.90;99.90;;;;;;2025341;29;20204;-72
2021/07/23 01:17:04;;;;;;;2.03;1.50;;;13.90;99.90;;;;;;2025091;29;20787;-73
2021/07/23 01:18:05;;;;;;;4.30;2.80;;;13.90;99.90;;;;;;2025536;29;20233;-74
2021/07/23 01:19:07;;;;;;;6.40;3.03;;;13.90;99.90;;;;;;2017552;29;20548;-73
2021/07/23 01:20:25;;;;;;;2.03;1.83;;;13.80;99.90;;;;;;2017614;29;20206;-75
2021/07/23 01:21:27;;;;;;;1.63;1.38;;;13.80;99.90;;;;;;2017500;29;20210;-73
2021/07/23 01:22:30;;;;;;;1.95;1.52;;;13.80;99.90;;;;;;2017806;29;20182;-73
2021/07/23 01:23:35;;;;;;;9.35;2.85;;;13.80;99.90;;;;;;2025412;29;20182;-73
2021/07/23 01:24:37;;;;;;;1.88;1.75;;;13.80;99.90;;;;;;2017819;29;20781;-74
2021/07/23 01:25:38;;;;;;;2.13;1.92;;;13.80;99.90;;;;;;2017756;29;20213;-73
2021/07/23 01:26:40;;;;;;;2.57;2.37;;;13.80;99.90;;;;;;2002458;29;20184;-73
2021/07/23 01:27:46;;;;;;;3.00;2.80;;;13.70;99.90;;;;;;2010225;29;20192;-73
2021/07/23 01:28:47;;;;;;;2.65;2.10;;;13.70;99.90;;;;;;2025428;29;20162;-73
2021/07/23 01:29:47;;;;;;;3.22;1.77;;;13.70;99.90;;;;;;2031568;29;20185;-75
2021/07/23 01:30:48;;;;;;;2.37;2.20;;;13.70;99.90;;;;;;2025938;29;20549;-72
2021/07/23 01:31:49;;;;;;;1.90;1.80;;;13.60;99.90;;;;;;2026053;29;20240;-73
2021/07/23 01:32:51;;;;;;;2.30;1.63;;;13.70;99.90;;;;;;2026058;29;20532;-73
2021/07/23 01:33:51;;;;;;;2.67;2.45;;;13.70;99.90;;;;;;2025937;29;20189;-73
2021/07/23 01:34:52;;;;;;;2.40;2.20;;;13.60;99.90;;;;;;2025465;29;20217;-73
2021/07/23 01:35:53;;;;;;;2.47;1.97;;;13.60;99.90;;;;;;2017479;29;20227;-73
2021/07/23 01:36:53;;;;;;;2.87;2.60;;;13.60;99.90;;;;;;2025094;29;20185;-73
2021/07/23 01:37:55;;;;;;;1.67;1.57;;;13.60;99.90;;;;;;2032963;29;20177;-73
2021/07/23 01:38:57;;;;;;;2.88;2.58;;;13.60;99.90;;;;;;2025362;29;20237;-72
2021/07/23 01:39:59;;;;;;;2.05;1.95;;;13.60;99.90;;;;;;2017594;29;20206;-73
2021/07/23 01:41:00;;;;;;;2.85;2.08;;;13.60;99.90;;;;;;2017412;29;20206;-72
2021/07/23 01:42:01;;;;;;;1.20;1.20;;;13.60;99.90;;;;;;2009862;29;20194;-72
2021/07/23 01:43:02;;;;;;;3.00;2.67;;;13.60;99.90;;;;;;2017563;29;20194;-72
2021/07/23 01:44:03;;;;;;;2.92;2.50;;;13.60;99.90;;;;;;2026135;29;20185;-72
2021/07/23 01:45:05;;;;;;;4.82;2.00;;;13.60;99.90;;;;;;2025173;29;20711;-72
2021/07/23 01:46:06;;;;;;;2.42;2.05;;;13.60;99.90;;;;;;2017490;29;20679;-72
2021/07/23 01:47:06;;;;;;;3.00;2.10;;;13.60;99.90;;;;;;2009364;29;20183;-73
2021/07/23 01:48:07;;;;;;;4.60;2.80;;;13.60;99.90;;;;;;2017468;29;20607;-72
2021/07/23 01:49:07;;;;;;;2.53;2.30;;;13.60;99.90;;;;;;2025152;29;20178;-72
2021/07/23 01:50:09;;;;;;;2.53;2.37;;;13.60;99.90;;;;;;2024996;29;20266;-72
2021/07/23 01:51:10;;;;;;;2.47;1.95;;;13.60;99.90;;;;;;2025112;29;20242;-72
2021/07/23 01:52:10;;;;;;;2.63;2.23;;;13.50;99.90;;;;;;2017413;29;20268;-72
2021/07/23 01:53:11;;;;;;;4.53;3.17;;;13.60;99.90;;;;;;2017423;29;20194;-72
2021/07/23 01:54:12;;;;;;;3.93;3.10;;;13.50;99.90;;;;;;2024809;29;20189;-72
2021/07/23 01:55:13;;;;;;;5.37;1.80;;;13.50;99.90;;;;;;2025191;29;20285;-73
2021/07/23 01:56:13;;;;;;;3.88;2.45;;;13.50;99.90;;;;;;2017493;29;20286;-73
2021/07/23 01:57:14;;;;;;;2.10;1.87;;;13.50;99.90;;;;;;2017192;29;20201;-72
2021/07/23 01:58:15;;;;;;;3.20;2.50;;;13.50;99.90;;;;;;2025074;29;20242;-72
2021/07/23 01:59:16;;;;;;;2.43;2.23;;;13.50;99.90;;;;;;2025179;29;20184;-72
2021/07/23 02:00:17;;;;;;;4.17;2.43;;;13.40;99.90;;;;;;2025062;29;20286;-73
2021/07/23 02:01:17;;;;;;;2.08;1.88;;;13.40;99.90;;;;;;2025068;29;20573;-72
2021/07/23 02:02:18;;;;;;;2.40;2.17;;;13.40;99.90;;;;;;2025227;29;20310;-72
2021/07/23 02:03:19;;;;;;;1.87;1.73;;;13.40;99.90;;;;;;2025698;29;20904;-72
2021/07/23 02:04:19;;;;;;;2.67;2.30;;;13.40;99.90;;;;;;2025662;29;20221;-72
2021/07/23 02:05:20;;;;;;;2.30;2.10;;;13.40;99.90;;;;;;2024970;29;20232;-72
2021/07/23 02:06:21;;;;;;;2.50;2.13;;;13.30;99.90;;;;;;2017332;29;20217;-72
2021/07/23 02:07:21;;;;;;;2.20;2.07;;;13.30;99.90;;;;;;2017277;29;20186;-72
2021/07/23 02:08:22;;;;;;;2.43;2.23;;;13.30;99.90;;;;;;2017230;29;20210;-72
2021/07/23 02:09:23;;;;;;;3.53;2.13;;;13.30;99.90;;;;;;2024963;29;20584;-72
2021/07/23 02:10:23;;;;;;;2.03;1.83;;;13.30;99.90;;;;;;2024368;29;20263;-72
2021/07/23 02:11:24;;;;;;;3.40;2.67;;;13.30;99.90;;;;;;2025073;29;20242;-72
2021/07/23 02:12:25;;;;;;;3.20;3.00;;;13.30;99.90;;;;;;2017196;29;20277;-72
2021/07/23 02:13:25;;;;;;;5.60;2.67;;;13.30;99.90;;;;;;2025217;29;20189;-72
2021/07/23 02:14:29;;;;;;;2.97;2.20;;;13.30;99.90;;;;;;2025056;29;20185;-72
2021/07/23 02:15:30;;;;;;;1.88;1.65;;;13.30;99.90;;;;;;2017851;29;20212;-72
2021/07/23 02:16:31;;;;;;;1.57;1.47;;;13.30;99.90;;;;;;2025171;29;20624;-72
2021/07/23 02:17:32;;;;;;;2.27;2.10;;;13.20;99.90;;;;;;2024883;29;20244;-72
2021/07/23 02:18:33;;;;;;;2.55;2.35;;;13.20;99.90;;;;;;2024991;29;20264;-72
2021/07/23 02:19:34;;;;;;;1.55;1.33;;;13.20;99.90;;;;;;2024805;29;20333;-72
2021/07/23 02:20:34;;;;;;;1.83;1.73;;;13.20;99.90;;;;;;2024748;29;20651;-72
2021/07/23 02:21:36;;;;;;;2.03;1.93;;;13.20;99.90;;;;;;2025095;29;20181;-72
2021/07/23 02:22:37;;;;;;;1.55;1.45;;;13.20;99.90;;;;;;2025129;29;20561;-73
2021/07/23 02:23:38;;;;;;;3.00;2.70;;;13.20;99.90;;;;;;2025120;29;20267;-72
2021/07/23 02:24:38;;;;;;;1.70;1.60;;;13.10;99.90;;;;;;2017339;29;20190;-72
2021/07/23 02:25:39;;;;;;;2.40;2.17;;;13.10;99.90;;;;;;2024933;29;20182;-74
2021/07/23 02:26:40;;;;;;;1.70;1.60;;;13.10;99.90;;;;;;2025464;29;20184;-72
2021/07/23 02:27:40;;;;;;;1.77;1.40;;;13.10;99.90;;;;;;2024626;29;20257;-72
2021/07/23 02:28:41;;;;;;;3.27;2.07;;;13.10;99.90;;;;;;2017096;29;20190;-72
2021/07/23 02:29:42;;;;;;;3.07;2.87;;;13.10;99.90;;;;;;2024470;29;20749;-72
2021/07/23 02:30:42;;;;;;;3.03;2.33;;;13.10;99.90;;;;;;2025385;29;20253;-72
2021/07/23 02:31:43;;;;;;;2.03;1.77;;;13.10;99.90;;;;;;2024690;29;20676;-72
2021/07/23 02:32:44;;;;;;;2.70;2.50;;;13.10;99.90;;;;;;2024824;29;20189;-72
2021/07/23 02:33:45;;;;;;;2.20;2.00;;;13.10;99.90;;;;;;2024841;29;20193;-72
2021/07/23 02:34:46;;;;;;;3.45;2.72;;;13.10;99.90;;;;;;2024809;29;20186;-72
2021/07/23 02:35:47;;;;;;;2.90;2.67;;;13.10;99.90;;;;;;2025236;29;20210;-72
2021/07/23 02:36:47;;;;;;;3.27;2.37;;;13.00;99.90;;;;;;2024758;29;20829;-72
2021/07/23 02:37:48;;;;;;;3.33;2.27;;;13.00;99.90;;;;;;2016874;29;20556;-72
2021/07/23 02:38:49;;;;;;;2.00;1.87;;;13.00;99.90;;;;;;2016985;29;20202;-72
2021/07/23 02:39:49;;;;;;;2.60;2.50;;;12.90;99.90;;;;;;2024536;29;20700;-72
2021/07/23 02:40:50;;;;;;;2.10;1.90;;;13.00;99.90;;;;;;2025099;29;20181;-72
2021/07/23 02:41:51;;;;;;;2.00;1.90;;;13.00;99.90;;;;;;2025277;29;20261;-72
2021/07/23 02:42:53;;;;;;;3.60;2.17;;;12.90;99.90;;;;;;2024633;29;20185;-71
2021/07/23 02:43:54;;;;;;;2.60;2.40;;;12.90;99.90;;;;;;2024715;29;20575;-72
2021/07/23 02:44:54;;;;;;;6.93;2.97;;;13.00;99.90;;;;;;2025182;29;20189;-72
2021/07/23 02:45:55;;;;;;;2.90;2.30;;;13.00;99.90;;;;;;2025217;29;20672;-72
2021/07/23 02:46:56;;;;;;;2.93;1.83;;;13.00;99.90;;;;;;2025076;29;20192;-72
2021/07/23 02:47:56;;;;;;;9.40;3.20;;;13.00;99.90;;;;;;2024522;29;20748;-72
2021/07/23 02:48:57;;;;;;;3.50;1.63;;;12.90;99.90;;;;;;2016946;29;20535;-72
2021/07/23 02:49:58;;;;;;;2.77;2.23;;;12.90;99.90;;;;;;2024396;29;20204;-72
2021/07/23 02:50:58;;;;;;;5.20;2.47;;;13.00;99.90;;;;;;2024468;29;20197;-72
2021/07/23 02:51:59;;;;;;;3.30;2.10;;;13.00;99.90;;;;;;2024353;29;20190;-71
2021/07/23 02:53:00;;;;;;;2.60;2.40;;;12.90;99.90;;;;;;2024572;29;20193;-72
2021/07/23 02:54:00;;;;;;;2.07;1.93;;;12.90;99.90;;;;;;2024446;29;20186;-72
2021/07/23 02:55:01;;;;;;;1.87;1.70;;;12.90;99.90;;;;;;2025204;29;20221;-72
2021/07/23 02:56:02;;;;;;;2.57;2.37;;;12.90;99.90;;;;;;2025114;29;20608;-72
2021/07/23 02:57:03;;;;;;;2.30;2.10;;;12.90;99.90;;;;;;2024965;29;20238;-72
2021/07/23 02:58:03;;;;;;;4.37;2.17;;;12.90;99.90;;;;;;2024460;29;20194;-72
2021/07/23 02:59:05;;;;;;;1.63;1.53;;;12.90;99.90;;;;;;2016795;29;20779;-72
2021/07/23 03:00:07;;;;;;;3.08;2.40;;;12.90;99.90;;;;;;2016833;29;20293;-72
2021/07/23 03:01:09;;;;;;;1.88;1.73;;;12.90;99.90;;;;;;2024366;29;20634;-72
2021/07/23 03:02:09;;;;;;;1.77;1.67;;;12.90;99.90;;;;;;2025099;29;20185;-72
2021/07/23 03:03:10;;;;;;;2.70;2.30;;;12.80;99.90;;;;;;2025063;29;20174;-72
2021/07/23 03:04:11;;;;;;;2.10;2.00;;;12.80;99.90;;;;;;2025129;29;20201;-72
2021/07/23 03:05:11;;;;;;;2.57;2.27;;;12.80;99.90;;;;;;2024544;29;20182;-71
2021/07/23 03:06:12;;;;;;;2.17;1.97;;;12.80;99.90;;;;;;2023945;29;20241;-72
2021/07/23 03:07:13;;;;;;;2.83;2.27;;;12.80;99.90;;;;;;2024823;29;20631;-72
2021/07/23 03:08:13;;;;;;;2.10;1.87;;;12.80;99.90;;;;;;2024494;29;20284;-72
2021/07/23 03:09:14;;;;;;;3.80;2.83;;;12.80;99.90;;;;;;2008889;29;20191;-72
2021/07/23 03:10:15;;;;;;;1.03;1.03;;;12.80;99.90;;;;;;2009142;29;20203;-72
2021/07/23 03:11:15;;;;;;;2.63;2.43;;;12.80;99.90;;;;;;2024414;29;20188;-72
2021/07/23 03:12:16;;;;;;;3.40;2.53;;;12.80;99.90;;;;;;2025067;29;20661;-71
2021/07/23 03:13:17;;;;;;;1.95;1.80;;;12.80;99.90;;;;;;2024945;29;20177;-72
2021/07/23 03:14:18;;;;;;;2.53;2.33;;;12.80;99.90;;;;;;2024497;29;20181;-72
2021/07/23 03:15:19;;;;;;;2.10;1.93;;;12.80;99.90;;;;;;2016655;29;20739;-72
2021/07/23 03:16:19;;;;;;;3.63;1.47;;;12.70;99.90;;;;;;2024610;29;20190;-72
2021/07/23 03:17:20;;;;;;;3.20;2.17;;;12.70;99.90;;;;;;2016493;29;20182;-72
2021/07/23 03:18:21;;;;;;;2.20;2.10;;;12.70;99.90;;;;;;2016642;29;20211;-71
2021/07/23 03:19:21;;;;;;;3.43;2.43;;;12.70;99.90;;;;;;2024401;29;20177;-72
2021/07/23 03:20:22;;;;;;;2.90;2.70;;;12.70;99.90;;;;;;2016666;29;20202;-72
2021/07/23 03:21:23;;;;;;;2.33;2.17;;;12.70;99.90;;;;;;2024434;29;20419;-72
2021/07/23 03:22:23;;;;;;;3.23;2.43;;;12.70;99.90;;;;;;2024419;29;20196;-72
2021/07/23 03:23:24;;;;;;;1.33;1.30;;;12.70;99.90;;;;;;2016627;29;20185;-72
2021/07/23 03:24:25;;;;;;;6.67;2.17;;;12.70;99.90;;;;;;2024565;29;20186;-72
2021/07/23 03:25:25;;;;;;;2.43;2.33;;;12.60;99.90;;;;;;2026853;29;20245;-72
2021/07/23 03:26:26;;;;;;;2.43;1.73;;;12.70;99.90;;;;;;2024503;29;20177;-72
2021/07/23 03:27:28;;;;;;;1.87;1.77;;;12.60;99.90;;;;;;2024268;29;20185;-72
2021/07/23 03:28:29;;;;;;;1.75;1.65;;;12.60;99.90;;;;;;2024606;29;20178;-71
2021/07/23 03:29:30;;;;;;;5.03;1.90;;;12.60;99.90;;;;;;2024441;29;20178;-72
2021/07/23 03:30:32;;;;;;;2.87;2.33;;;12.60;99.90;;;;;;2024631;29;20213;-72
2021/07/23 03:31:33;;;;;;;2.17;1.75;;;12.60;99.90;;;;;;2024777;29;20233;-72
2021/07/23 03:32:34;;;;;;;2.93;2.57;;;12.60;99.90;;;;;;2024761;29;20185;-72
2021/07/23 03:33:34;;;;;;;3.37;3.07;;;12.60;99.90;;;;;;2024673;29;20234;-72
2021/07/23 03:34:35;;;;;;;3.67;2.60;;;12.60;99.90;;;;;;2025160;29;20275;-72
2021/07/23 03:35:36;;;;;;;2.53;2.33;;;12.60;99.90;;;;;;2024603;29;20672;-72
2021/07/23 03:36:36;;;;;;;4.47;3.03;;;12.60;99.90;;;;;;2024724;29;20246;-72
2021/07/23 03:37:37;;;;;;;1.97;1.70;;;12.60;99.90;;;;;;2025159;29;20189;-72
2021/07/23 03:38:38;;;;;;;4.10;1.97;;;12.60;99.90;;;;;;2025264;29;20930;-72
2021/07/23 03:39:38;;;;;;;2.47;2.17;;;12.60;99.90;;;;;;2025030;29;20193;-71
2021/07/23 03:40:39;;;;;;;1.90;1.80;;;12.60;99.90;;;;;;2025236;29;20189;-72
2021/07/23 03:41:42;;;;;;;4.83;3.20;;;12.60;99.90;;;;;;2025262;29;20241;-72
2021/07/23 03:42:42;;;;;;;2.40;1.95;;;12.60;99.90;;;;;;2025115;29;20178;-72
2021/07/23 03:43:43;;;;;;;2.10;1.90;;;12.60;99.90;;;;;;2025031;29;20565;-72
2021/07/23 03:44:46;;;;;;;8.37;3.13;;;12.60;99.90;;;;;;2024108;29;20196;-72
2021/07/23 03:45:46;;;;;;;3.28;2.63;;;12.60;99.90;;;;;;2024401;29;20185;-72
2021/07/23 03:46:47;;;;;;;3.93;2.77;;;12.60;99.90;;;;;;2024864;29;20197;-72
2021/07/23 03:47:48;;;;;;;2.20;1.57;;;12.60;99.90;;;;;;2016432;29;20182;-72
2021/07/23 03:48:49;;;;;;;2.17;1.73;;;12.60;99.90;;;;;;2016560;29;20678;-72
2021/07/23 03:49:49;;;;;;;1.67;1.13;;;12.60;99.90;;;;;;2016401;29;20186;-72
2021/07/23 03:50:50;;;;;;;1.80;1.67;;;12.60;99.90;;;;;;2016446;29;20186;-72
2021/07/23 03:51:51;;;;;;;3.07;2.77;;;12.60;99.90;;;;;;2024344;29;20269;-72
2021/07/23 03:52:51;;;;;;;4.83;3.20;;;12.60;99.90;;;;;;2024807;29;20669;-72
2021/07/23 03:53:52;;;;;;;2.07;1.87;;;12.50;99.90;;;;;;2024355;29;20186;-72
2021/07/23 03:54:53;;;;;;;2.90;2.53;;;12.50;99.90;;;;;;2024250;29;20178;-72
2021/07/23 03:55:53;;;;;;;2.57;2.37;;;12.40;99.90;;;;;;2024346;29;20809;-72
2021/07/23 03:56:54;;;;;;;2.03;1.50;;;12.40;99.90;;;;;;2016421;29;20259;-72
2021/07/23 03:57:55;;;;;;;3.00;2.70;;;12.40;99.90;;;;;;2024272;29;20208;-72
2021/07/23 03:58:55;;;;;;;2.93;2.73;;;12.40;99.90;;;;;;2016412;29;20191;-72
2021/07/23 03:59:56;;;;;;;2.00;1.87;;;12.40;99.90;;;;;;2016595;29;20206;-71
2021/07/23 04:00:57;;;;;;;2.37;2.20;;;12.40;99.90;;;;;;2024831;29;20237;-72
2021/07/23 04:01:57;;;;;;;2.33;2.13;;;12.40;99.90;;;;;;2024602;29;20174;-71
2021/07/23 04:02:58;;;;;;;3.67;3.03;;;12.40;99.90;;;;;;2016884;29;20198;-72
2021/07/23 04:03:59;;;;;;;2.57;2.07;;;12.30;99.90;;;;;;2016951;29;20195;-72
2021/07/23 04:04:59;;;;;;;3.00;1.77;;;12.30;99.90;;;;;;2024553;29;20225;-71
2021/07/23 04:06:01;;;;;;;3.70;2.57;;;12.30;99.90;;;;;;2024588;29;20181;-72
2021/07/23 04:07:01;;;;;;;2.47;1.55;;;12.40;99.90;;;;;;2016670;29;20242;-73
2021/07/23 04:08:02;;;;;;;1.70;1.60;;;12.40;99.90;;;;;;2016769;29;20680;-71
2021/07/23 04:09:03;;;;;;;1.83;1.73;;;12.40;99.90;;;;;;2024410;29;20261;-71
2021/07/23 04:10:04;;;;;;;3.73;2.30;;;12.40;99.90;;;;;;2024382;29;20213;-71
2021/07/23 04:11:05;;;;;;;4.88;1.95;;;12.40;99.90;;;;;;2016749;29;20193;-72
2021/07/23 04:12:06;;;;;;;4.20;2.80;;;12.40;99.90;;;;;;2016681;29;20281;-72
2021/07/23 04:13:07;;;;;;;3.20;2.13;;;12.40;99.90;;;;;;2024198;29;20185;-72
2021/07/23 04:14:08;;;;;;;2.27;2.07;;;12.40;99.90;;;;;;2024880;29;20245;-71
2021/07/23 04:15:09;;;;;;;1.93;1.83;;;12.40;99.90;;;;;;2024822;29;20268;-71
2021/07/23 04:16:10;;;;;;;2.50;2.30;;;12.40;99.90;;;;;;2024839;29;20192;-72
2021/07/23 04:17:11;;;;;;;3.73;2.30;;;12.40;99.90;;;;;;2024728;29;20189;-72
2021/07/23 04:18:11;;;;;;;2.33;1.87;;;12.40;99.90;;;;;;2025627;29;20673;-72
2021/07/23 04:19:13;;;;;;;4.43;3.00;;;12.40;99.90;;;;;;2025677;29;20185;-72
2021/07/23 04:20:14;;;;;;;1.80;1.70;;;12.40;99.90;;;;;;2025619;29;20262;-72
2021/07/23 04:21:15;;;;;;;2.38;2.17;;;12.50;99.90;;;;;;2025626;29;20636;-72
2021/07/23 04:22:18;;;;;;;3.17;2.27;;;12.50;99.90;;;;;;2017727;29;20190;-71
2021/07/23 04:23:19;;;;;;;2.05;1.80;;;12.40;99.90;;;;;;2018655;29;20185;-72
2021/07/23 04:24:20;;;;;;;4.60;3.07;;;12.40;99.90;;;;;;2033159;29;20549;-72
2021/07/23 04:25:20;;;;;;;3.10;2.23;;;12.40;99.90;;;;;;2026416;29;20258;-72
2021/07/23 04:26:21;;;;;;;3.20;2.90;;;12.50;99.90;;;;;;2018021;29;20195;-72
2021/07/23 04:27:21;;;;;;;1.10;1.10;;;12.50;99.90;;;;;;2018106;29;20178;-72
2021/07/23 04:28:22;;;;;;;4.50;3.33;;;12.50;99.90;;;;;;2025785;29;20178;-72
2021/07/23 04:29:23;;;;;;;3.47;2.93;;;12.50;99.90;;;;;;2018090;29;20197;-72
2021/07/23 04:30:24;;;;;;;2.40;2.30;;;12.50;99.90;;;;;;2018009;29;20209;-73
2021/07/23 04:31:26;;;;;;;1.55;1.45;;;12.50;99.90;;;;;;2025871;29;20434;-72
2021/07/23 04:32:27;;;;;;;1.95;1.85;;;12.60;99.90;;;;;;2025799;29;20193;-72
2021/07/23 04:33:28;;;;;;;2.20;2.00;;;12.60;99.90;;;;;;2025945;29;20190;-72
2021/07/23 04:34:28;;;;;;;2.40;2.22;;;12.60;99.90;;;;;;2026347;29;20193;-72
2021/07/23 04:35:29;;;;;;;1.83;1.73;;;12.60;99.90;;;;;;2025886;29;20665;-72
2021/07/23 04:36:34;;;;;;;2.90;2.70;;;12.60;99.90;;;;;;2025652;29;20185;-72
2021/07/23 04:37:35;;;;;;;2.30;2.20;;;12.60;99.90;;;;;;2025500;29;20200;-72
2021/07/23 04:38:35;;;;;;;2.97;2.77;;;12.60;99.90;;;;;;2025635;29;20193;-71
2021/07/23 04:39:36;;;;;;;4.97;1.87;;;12.60;99.90;;;;;;2025722;29;20189;-72
2021/07/23 04:40:37;;;;;;;3.47;2.63;;;12.60;99.90;;;;;;2017980;29;20202;-72
2021/07/23 04:41:37;;;;;;;2.00;1.90;;;12.60;99.90;;;;;;2025725;29;20213;-71
2021/07/23 04:42:38;;;;;;;1.37;1.27;;;12.60;99.90;;;;;;2026282;29;20184;-72
2021/07/23 04:43:39;;;;;;;2.13;2.03;;;12.70;99.90;;;;;;2026248;29;20330;-72
2021/07/23 04:44:40;;;;;;;2.50;2.30;;;12.70;99.90;;;;;;2026193;29;20189;-71
2021/07/23 04:45:40;;;;;;;2.87;2.67;;;12.70;99.90;;;;;;2017901;29;20266;-72
2021/07/23 04:46:41;;;;;;;4.00;2.17;;;12.80;99.90;;;;;;2017824;29;20193;-72
2021/07/23 04:47:42;;;;;;;3.27;2.87;;;12.80;99.90;;;;;;2033362;29;20189;-71
2021/07/23 04:48:42;;;;;;;3.03;2.80;;;12.80;99.90;;;;;;2025754;29;20186;-71
2021/07/23 04:49:43;;;;;;;2.30;2.10;;;12.80;99.90;;;;;;2017734;29;20183;-72
2021/07/23 04:50:44;;;;;;;1.77;1.67;;;12.80;99.90;;;;;;2017818;29;20253;-72
2021/07/23 04:51:44;;;;;;;2.60;1.57;;;12.80;99.90;;;;;;2017898;29;20210;-72
2021/07/23 04:52:45;;;;;;;3.47;2.37;;;12.90;99.90;;;;;;2010077;29;20704;-72
2021/07/23 04:53:47;;;;;;;1.73;1.63;;;12.80;99.90;;;;;;2017972;29;20294;-71
2021/07/23 04:54:48;;;;;;;1.85;1.75;;;12.80;99.90;;;;;;2025590;29;20185;-72
2021/07/23 04:55:50;;;;;;;2.30;1.93;;;12.90;99.90;;;;;;2013853;29;20941;-72
2021/07/23 04:56:53;;;;;;;2.13;1.95;;;12.80;99.90;;;;;;2017433;29;20629;-71
2021/07/23 04:57:53;;;;;;;1.92;1.70;;;12.90;99.90;;;;;;2020797;29;20174;-72
2021/07/23 04:58:54;;;;;;;3.63;3.30;;;12.90;99.90;;;;;;2026179;29;20724;-72
2021/07/23 04:59:55;;;;;;;1.97;1.87;;;12.90;99.90;;;;;;2025249;29;20284;-72
2021/07/23 05:00:55;;;;;;;9.20;2.97;;;13.00;99.90;;;;;;2017803;29;20191;-72
2021/07/23 05:01:56;;;;;;;3.30;1.87;;;13.00;99.90;;;;;;2017779;29;20202;-72
2021/07/23 05:02:57;;;;;;;2.90;2.60;;;13.00;99.90;;;;;;2025725;29;20840;-72
2021/07/23 05:03:59;;;;;;;6.87;2.80;;;13.00;99.90;;;;;;2026156;29;20291;-72
2021/07/23 05:05:00;;;;;;;2.30;2.20;;;13.10;99.90;;;;;;2026029;29;20185;-72
2021/07/23 05:06:01;;;;;;;2.00;1.80;;;13.10;99.90;;;;;;2025331;29;20683;-72
2021/07/23 05:07:02;;;;;;;2.93;2.30;;;13.10;99.90;;;;;;2025540;29;20257;-72
2021/07/23 05:08:03;;;;;;;2.57;2.37;;;13.10;99.90;;;;;;2025363;29;20193;-72
2021/07/23 05:09:05;;;;;;;5.27;1.60;;;13.10;99.90;;;;;;2017907;29;20458;-72
2021/07/23 05:10:07;;;;;;;6.55;1.98;;;13.10;99.90;;;;;;2025269;29;20224;-72
2021/07/23 05:11:13;;;;;;;1.80;1.70;;;13.10;99.90;;;;;;2025549;29;20193;-72
2021/07/23 05:12:14;;;;;;;2.20;2.00;;;13.10;99.90;;;;;;2018169;29;20764;-72
2021/07/23 05:13:15;;;;;;;1.80;1.70;;;13.10;99.90;;;;;;2017975;29;20198;-72
2021/07/23 05:14:17;;;;;;;1.30;1.20;;;13.10;99.90;;;;;;2025418;29;20205;-72
2021/07/23 05:15:18;;;;;;;2.53;2.35;;;13.10;99.90;;;;;;2025480;29;20627;-72
2021/07/23 05:16:19;;;;;;;5.90;2.20;;;13.20;99.90;;;;;;2025304;29;20177;-72
2021/07/23 05:17:19;;;;;;;3.90;2.43;;;13.20;99.90;;;;;;2017525;29;20917;-71
2021/07/23 05:18:21;;;;;;;2.97;2.37;;;13.30;99.90;;;;;;2017916;29;20609;-72